createdAt,value
2022-08-09T00:01:14.475Z,32.17
2022-08-09T00:04:24.999Z,32.23
2022-08-09T00:07:10.805Z,32.19
2022-08-09T00:09:52.480Z,32.11
2022-08-09T00:12:41.182Z,32.10
2022-08-09T00:15:35.133Z,32.06
2022-08-09T00:18:34.740Z,32.08
2022-08-09T00:21:17.742Z,32.01
2022-08-09T00:24:06.431Z,32.13
2022-08-09T00:26:53.463Z,32.07
2022-08-09T00:30:24.942Z,32.16
2022-08-09T00:32:46.085Z,32.11
2022-08-09T00:35:43.515Z,32.14
2022-08-09T00:38:25.757Z,32.14
2022-08-09T00:44:14.815Z,32.14
2022-08-09T00:44:26.224Z,32.09
2022-08-09T00:47:16.465Z,32.06
2022-08-09T00:49:58.634Z,32.13
2022-08-09T00:52:47.192Z,32.18
2022-08-09T00:56:03.673Z,32.23
2022-08-09T00:58:42.172Z,32.26
2022-08-09T01:01:48.501Z,32.35
2022-08-09T01:05:14.126Z,32.38
2022-08-09T01:08:05.328Z,32.37
2022-08-09T01:11:10.664Z,32.46
2022-08-09T01:14:15.169Z,32.57
2022-08-09T01:17:12.531Z,32.61
2022-08-09T01:20:07.423Z,32.58
2022-08-09T01:24:03.328Z,32.75
2022-08-09T01:26:39.197Z,32.80
2022-08-09T01:29:41.151Z,32.91
2022-08-09T01:32:46.029Z,32.93
2022-08-09T01:35:54.421Z,33.01
2022-08-09T01:38:44.410Z,33.02
2022-08-09T01:41:53.760Z,33.15
2022-08-09T01:44:46.169Z,32.80
2022-08-09T01:47:44.657Z,32.96
2022-08-09T01:50:37.169Z,33.21
2022-08-09T01:53:41.015Z,33.22
2022-08-09T01:56:31.509Z,33.46
2022-08-09T01:59:17.189Z,33.54
2022-08-09T02:02:07.472Z,33.60
2022-08-09T02:04:52.423Z,33.77
2022-08-09T02:08:38.673Z,33.68
2022-08-09T02:10:53.190Z,33.79
2022-08-09T02:13:44.318Z,34.03
2022-08-09T02:17:15.127Z,34.51
2022-08-09T02:19:57.589Z,34.63
2022-08-09T02:22:59.153Z,34.86
2022-08-09T02:25:55.957Z,34.92
2022-08-09T02:28:48.411Z,35.26
2022-08-09T02:31:38.429Z,35.59
2022-08-09T02:34:40.193Z,35.83
2022-08-09T02:37:31.899Z,35.98
2022-08-09T02:40:31.266Z,36.45
2022-08-09T02:43:21.419Z,36.48
2022-08-09T02:46:20.037Z,36.68
2022-08-09T02:49:20.109Z,36.58
2022-08-09T02:52:25.187Z,35.78
2022-08-09T02:55:21.498Z,35.84
2022-08-09T02:58:35.336Z,36.21
2022-08-09T03:01:21.921Z,36.11
2022-08-09T03:04:20.458Z,35.62
2022-08-09T03:07:17.392Z,35.85
2022-08-09T03:10:07.442Z,35.78
2022-08-09T03:12:58.310Z,35.13
2022-08-09T03:16:06.703Z,35.09
2022-08-09T03:18:53.037Z,35.37
2022-08-09T03:21:39.737Z,35.40
2022-08-09T03:24:42.787Z,35.43
2022-08-09T03:27:44.744Z,36.28
2022-08-09T03:30:36.697Z,36.34
2022-08-09T03:33:20.330Z,36.54
2022-08-09T03:36:12.677Z,36.35
2022-08-09T03:38:58.616Z,35.97
2022-08-09T03:41:48.747Z,36.39
2022-08-09T03:44:38.449Z,36.56
2022-08-09T03:47:39.832Z,36.56
2022-08-09T03:50:31.754Z,36.42
2022-08-09T03:53:16.335Z,36.02
2022-08-09T03:56:09.205Z,36.52
2022-08-09T03:58:51.751Z,36.83
2022-08-09T04:01:44.186Z,37.31
2022-08-09T04:04:36.080Z,36.94
2022-08-09T04:07:47.010Z,36.97
2022-08-09T04:10:30.491Z,37.59
2022-08-09T04:13:20.829Z,37.22
2022-08-09T04:16:21.774Z,37.17
2022-08-09T04:19:11.153Z,37.11
2022-08-09T04:22:04.053Z,36.46
2022-08-09T04:25:01.396Z,36.02
2022-08-09T04:27:49.369Z,36.44
2022-08-09T04:30:32.783Z,37.04
2022-08-09T04:33:23.627Z,36.45
2022-08-09T04:36:19.353Z,36.40
2022-08-09T04:39:03.340Z,36.48
2022-08-09T04:41:45.470Z,37.25
2022-08-09T04:44:34.082Z,37.52
2022-08-09T04:47:45.133Z,38.06
2022-08-09T04:50:37.866Z,37.08
2022-08-09T04:53:20.448Z,37.94
2022-08-09T04:56:11.274Z,38.24
2022-08-09T04:58:53.347Z,38.52
2022-08-09T05:01:45.089Z,37.88
2022-08-09T05:04:34.305Z,37.65
2022-08-09T05:07:23.450Z,37.30
2022-08-09T05:10:06.740Z,36.84
2022-08-09T05:12:56.150Z,36.99
2022-08-09T05:15:48.121Z,37.77
2022-08-09T05:18:50.627Z,38.02
2022-08-09T05:21:47.127Z,38.37
2022-08-09T05:24:44.254Z,38.74
2022-08-09T05:27:30.354Z,38.37
2022-08-09T05:30:20.303Z,37.86
2022-08-09T05:33:02.751Z,37.76
2022-08-09T05:35:51.300Z,38.02
2022-08-09T05:38:33.498Z,38.47
2022-08-09T05:41:28.281Z,38.39
2022-08-09T05:44:10.565Z,38.75
2022-08-09T05:47:01.168Z,38.75
2022-08-09T05:50:24.209Z,39.33
2022-08-09T05:53:02.279Z,38.74
2022-08-09T05:55:51.018Z,38.88
2022-08-09T05:58:41.681Z,38.32
2022-08-09T06:01:24.282Z,37.58
2022-08-09T06:04:13.281Z,37.89
2022-08-09T06:06:56.035Z,37.31
2022-08-09T06:10:01.755Z,37.38
2022-08-09T06:12:45.083Z,37.14
2022-08-09T06:15:47.131Z,36.86
2022-08-09T06:18:31.340Z,37.50
2022-08-09T06:21:20.138Z,37.35
2022-08-09T06:24:02.812Z,37.58
2022-08-09T06:26:51.687Z,37.56
2022-08-09T06:29:34.430Z,37.56
2022-08-09T06:32:59.762Z,37.69
2022-08-09T06:35:57.776Z,38.07
2022-08-09T06:38:50.193Z,38.53
2022-08-09T06:42:07.831Z,38.33
2022-08-09T06:44:41.192Z,38.66
2022-08-09T06:47:25.701Z,38.44
2022-08-09T06:50:32.136Z,38.37
2022-08-09T06:53:20.332Z,37.93
2022-08-09T06:56:03.387Z,37.51
2022-08-09T07:00:49.820Z,37.57
2022-08-09T07:01:59.604Z,37.15
2022-08-09T07:04:46.653Z,37.67
2022-08-09T07:08:00.632Z,37.75
2022-08-09T07:10:37.279Z,37.75
2022-08-09T07:13:29.552Z,37.23
2022-08-09T07:16:43.424Z,37.42
2022-08-09T07:19:23.446Z,37.05
2022-08-09T07:22:05.654Z,37.39
2022-08-09T07:24:55.042Z,37.90
2022-08-09T07:27:42.434Z,37.99
2022-08-09T07:30:42.290Z,38.87
2022-08-09T07:33:52.574Z,38.57
2022-08-09T07:36:35.020Z,37.86
2022-08-09T07:39:40.842Z,37.86
2022-08-09T07:42:32.469Z,37.35
2022-08-09T07:45:22.762Z,37.42
2022-08-09T07:48:36.066Z,37.51
2022-08-09T07:52:05.844Z,37.45
2022-08-09T07:54:35.533Z,37.80
2022-08-09T07:57:33.717Z,38.01
2022-08-09T08:00:37.125Z,37.69
2022-08-09T08:03:45.435Z,37.88
2022-08-09T08:06:31.973Z,37.51
2022-08-09T08:09:38.664Z,37.03
2022-08-09T08:12:31.058Z,36.94
2022-08-09T08:15:24.322Z,37.26
2022-08-09T08:18:14.327Z,37.19
2022-08-09T08:21:03.155Z,36.82
2022-08-09T08:23:45.288Z,36.97
2022-08-09T08:26:55.865Z,35.26
2022-08-09T08:29:39.546Z,34.93
2022-08-09T08:32:34.164Z,34.93
2022-08-09T08:35:18.170Z,34.34
2022-08-09T08:38:11.470Z,34.25
2022-08-09T08:40:53.947Z,33.99
2022-08-09T08:43:42.159Z,33.85
2022-08-09T08:46:33.387Z,34.14
2022-08-09T08:49:38.711Z,33.93
2022-08-09T08:52:59.337Z,34.54
2022-08-09T08:55:52.647Z,34.51
2022-08-09T08:58:36.099Z,33.83
2022-08-09T09:01:45.027Z,33.49
2022-08-09T09:04:47.741Z,33.39
2022-08-09T09:07:42.838Z,33.95
2022-08-09T09:10:35.113Z,33.78
2022-08-09T09:13:42.081Z,33.69
2022-08-09T09:16:29.919Z,32.86
2022-08-09T09:19:41.481Z,33.09
2022-08-09T09:22:28.822Z,33.12
2022-08-09T09:26:03.468Z,33.43
2022-08-09T09:28:21.270Z,33.51
2022-08-09T09:32:03.931Z,33.45
2022-08-09T09:34:32.678Z,33.28
2022-08-09T09:37:37.142Z,33.22
2022-08-09T09:40:22.568Z,33.16
2022-08-09T09:43:14.414Z,33.24
2022-08-09T09:50:07.314Z,32.97
2022-08-09T09:52:37.716Z,33.14
2022-08-09T09:55:31.218Z,32.93
2022-08-09T09:58:19.597Z,32.95
2022-08-09T10:01:31.401Z,33.28
2022-08-09T10:04:22.820Z,33.06
2022-08-09T10:07:35.414Z,33.23
2022-08-09T10:10:44.431Z,33.13
2022-08-09T10:13:43.244Z,33.34
2022-08-09T10:16:56.998Z,33.64
2022-08-09T10:19:45.862Z,33.50
2022-08-09T10:22:45.720Z,33.72
2022-08-09T10:25:34.901Z,33.73
2022-08-09T10:28:48.817Z,33.78
2022-08-09T10:35:05.164Z,33.62
2022-08-09T10:37:52.839Z,33.55
2022-08-09T10:40:50.110Z,33.68
2022-08-09T10:43:36.136Z,33.95
2022-08-09T10:47:20.552Z,33.34
2022-08-09T10:50:33.438Z,33.77
2022-08-09T10:53:56.163Z,33.93
2022-08-09T10:56:40.727Z,33.99
2022-08-09T10:59:31.774Z,34.14
2022-08-09T11:03:13.787Z,33.87
2022-08-09T11:06:33.406Z,34.32
2022-08-09T11:09:34.951Z,33.97
2022-08-09T11:12:29.684Z,34.18
2022-08-09T11:15:50.601Z,34.26
2022-08-09T11:18:53.408Z,33.53
2022-08-09T11:22:18.808Z,33.73
2022-08-09T11:25:44.976Z,33.24
2022-08-09T11:28:56.227Z,34.00
2022-08-09T11:31:55.065Z,33.78
2022-08-09T11:34:51.595Z,33.87
2022-08-09T11:37:41.514Z,33.80
2022-08-09T11:40:43.408Z,33.80
2022-08-09T11:43:32.088Z,33.42
2022-08-09T11:46:32.887Z,33.19
2022-08-09T11:49:17.020Z,33.47
2022-08-09T11:53:03.757Z,33.37
2022-08-09T11:55:53.941Z,33.74
2022-08-09T11:59:04.150Z,33.62
2022-08-09T12:02:16.415Z,33.45
2022-08-09T12:04:58.944Z,33.73
2022-08-09T12:07:42.864Z,33.58
2022-08-09T12:10:39.519Z,33.57
2022-08-09T12:14:10.259Z,33.96
2022-08-09T12:16:53.414Z,33.92
2022-08-09T12:19:46.164Z,33.80
2022-08-09T12:22:32.720Z,33.47
2022-08-09T12:25:37.649Z,33.61
2022-08-09T12:29:15.615Z,33.39
2022-08-09T12:32:01.881Z,33.48
2022-08-09T12:34:50.410Z,33.57
2022-08-09T12:37:49.735Z,33.77
2022-08-09T12:40:40.301Z,33.73
2022-08-09T12:44:05.817Z,33.24
2022-08-09T12:46:36.062Z,33.64
2022-08-09T12:49:25.301Z,33.45
2022-08-09T12:52:22.166Z,33.11
2022-08-09T12:56:14.538Z,33.08
2022-08-09T12:58:43.175Z,32.84
2022-08-09T13:01:33.383Z,32.97
2022-08-09T13:04:38.202Z,32.76
2022-08-09T13:07:28.580Z,33.28
2022-08-09T13:10:34.896Z,33.02
2022-08-09T13:13:28.140Z,33.13
2022-08-09T13:16:28.184Z,32.94
2022-08-09T13:19:13.905Z,32.44
2022-08-09T13:22:37.765Z,32.37
2022-08-09T13:25:07.659Z,32.56
2022-08-09T13:27:57.425Z,32.54
2022-08-09T13:32:14.143Z,32.45
2022-08-09T13:33:54.954Z,32.39
2022-08-09T13:36:43.618Z,32.53
2022-08-09T13:41:31.191Z,32.61
2022-08-09T13:42:43.436Z,32.42
2022-08-09T13:45:32.118Z,32.43
2022-08-09T13:48:37.169Z,32.30
2022-08-09T13:51:27.147Z,32.57
2022-08-09T13:54:22.032Z,32.30
2022-08-09T13:57:36.441Z,32.24
2022-08-09T14:00:29.030Z,31.95
2022-08-09T14:04:02.272Z,32.17
2022-08-09T14:06:26.448Z,32.00
2022-08-09T14:09:08.888Z,32.02
2022-08-09T14:12:00.387Z,32.27
2022-08-09T14:14:53.831Z,31.99
2022-08-09T14:18:06.752Z,32.03
2022-08-09T14:20:48.936Z,32.01
2022-08-09T14:23:46.877Z,31.90
2022-08-09T14:26:45.429Z,31.69
2022-08-09T14:30:34.904Z,31.60
2022-08-09T14:32:43.310Z,31.55
2022-08-09T14:35:25.643Z,31.63
2022-08-09T14:38:34.137Z,31.30
2022-08-09T14:41:39.782Z,31.67
2022-08-09T14:44:32.431Z,31.92
2022-08-09T14:47:45.373Z,31.45
2022-08-09T14:50:28.708Z,31.70
2022-08-09T14:53:21.430Z,31.39
2022-08-09T14:56:21.750Z,31.86
2022-08-09T14:59:15.394Z,31.80
2022-08-09T15:02:04.179Z,31.65
2022-08-09T15:05:03.037Z,31.68
2022-08-09T15:07:56.895Z,31.22
2022-08-09T15:10:42.363Z,31.25
2022-08-09T15:13:48.030Z,31.70
2022-08-09T15:16:33.470Z,31.86
2022-08-09T15:19:26.080Z,31.89
2022-08-09T15:22:08.449Z,31.30
2022-08-09T15:24:58.384Z,31.61
2022-08-09T15:27:55.090Z,31.61
2022-08-09T15:31:00.839Z,31.41
2022-08-09T15:34:17.599Z,31.60
2022-08-09T15:36:53.538Z,31.51
2022-08-09T15:39:53.135Z,31.40
2022-08-09T15:42:43.390Z,31.59
2022-08-09T15:45:29.573Z,31.42
2022-08-09T15:48:29.061Z,31.55
2022-08-09T15:52:00.770Z,31.61
2022-08-09T15:54:33.475Z,31.54
2022-08-09T15:57:44.402Z,31.35
2022-08-09T16:00:33.895Z,31.56
2022-08-09T16:03:29.570Z,31.62
2022-08-09T16:06:32.331Z,31.61
2022-08-09T16:09:32.404Z,31.58
2022-08-09T16:12:36.969Z,31.55
2022-08-09T16:16:04.603Z,31.54
2022-08-09T16:18:25.591Z,31.30
2022-08-09T16:21:17.390Z,31.57
2022-08-09T16:24:29.767Z,31.57
2022-08-09T16:27:16.475Z,31.48
2022-08-09T16:30:06.450Z,31.69
2022-08-09T16:33:07.049Z,31.61
2022-08-09T16:36:01.884Z,31.48
2022-08-09T16:38:51.740Z,31.61
2022-08-09T16:42:02.650Z,31.74
2022-08-09T16:44:45.417Z,31.44
2022-08-09T16:48:38.090Z,31.41
2022-08-09T16:50:39.839Z,31.48
2022-08-09T16:53:33.834Z,31.60
2022-08-09T16:56:16.600Z,31.65
2022-08-09T16:59:10.394Z,31.70
2022-08-09T17:01:53.003Z,31.63
2022-08-09T17:04:42.057Z,31.66
2022-08-09T17:08:43.877Z,31.57
2022-08-09T17:10:33.414Z,31.54
2022-08-09T17:13:22.844Z,31.63
2022-08-09T17:16:05.180Z,31.67
2022-08-09T17:18:54.133Z,31.65
2022-08-09T17:21:36.687Z,31.56
2022-08-09T17:24:30.810Z,31.42
2022-08-09T17:27:15.211Z,31.51
2022-08-09T17:30:04.656Z,31.64
2022-08-09T17:32:48.664Z,31.57
2022-08-09T17:35:41.186Z,31.58
2022-08-09T17:38:33.968Z,31.60
2022-08-09T17:41:38.852Z,31.61
2022-08-09T17:44:39.103Z,31.60
2022-08-09T17:47:30.158Z,31.60
2022-08-09T17:50:24.973Z,31.56
2022-08-09T17:53:22.563Z,31.67
2022-08-09T17:56:09.368Z,31.55
2022-08-09T17:59:09.168Z,31.60
2022-08-09T18:02:11.717Z,31.57
2022-08-09T18:04:58.586Z,31.61
2022-08-09T18:07:48.938Z,31.61
2022-08-09T18:10:32.687Z,31.44
2022-08-09T18:13:43.667Z,31.65
2022-08-09T18:16:30.389Z,31.56
2022-08-09T18:20:55.556Z,31.67
2022-08-09T18:22:28.172Z,31.65
2022-08-09T18:25:16.398Z,31.64
2022-08-09T18:28:21.405Z,31.57
2022-08-09T18:31:24.903Z,31.50
2022-08-09T18:34:18.479Z,31.52
2022-08-09T18:37:05.944Z,31.47
2022-08-09T18:39:59.452Z,31.47
2022-08-09T18:42:48.141Z,31.47
2022-08-09T18:46:49.929Z,31.42
2022-08-09T18:48:42.361Z,31.39
2022-08-09T18:51:37.951Z,31.45
2022-08-09T18:54:29.565Z,31.44
2022-08-09T18:57:12.793Z,31.41
2022-08-09T19:00:09.393Z,31.41
2022-08-09T19:03:00.044Z,31.34
2022-08-09T19:06:03.546Z,31.30
2022-08-09T19:08:55.262Z,31.31
2022-08-09T19:11:45.142Z,31.33
2022-08-09T19:14:29.483Z,31.30
2022-08-09T19:17:18.127Z,31.31
2022-08-09T19:20:03.255Z,31.28
2022-08-09T19:22:54.556Z,31.31
2022-08-09T19:25:41.936Z,31.30
2022-08-09T19:28:47.098Z,31.25
2022-08-09T19:31:43.965Z,31.30
2022-08-09T19:34:28.433Z,31.26
2022-08-09T19:37:17.814Z,31.27
2022-08-09T19:40:05.762Z,31.20
2022-08-09T19:42:54.138Z,31.27
2022-08-09T19:45:40.332Z,31.21
2022-08-09T19:49:01.018Z,31.21
2022-08-09T19:51:33.643Z,31.21
2022-08-09T19:54:26.162Z,31.18
2022-08-09T19:57:09.351Z,31.17
2022-08-09T20:00:07.344Z,31.22
2022-08-09T20:04:12.141Z,31.17
2022-08-09T20:05:58.629Z,31.16
2022-08-09T20:08:45.416Z,31.16
2022-08-09T20:11:45.395Z,31.21
2022-08-09T20:14:43.851Z,31.08
2022-08-09T20:17:41.574Z,31.05
2022-08-09T20:20:30.778Z,30.99
2022-08-09T20:23:19.396Z,30.97
2022-08-09T20:26:03.804Z,30.97
2022-08-09T20:28:55.409Z,31.08
2022-08-09T20:32:16.797Z,31.09
2022-08-09T20:34:46.160Z,31.02
2022-08-09T20:38:18.415Z,31.01
2022-08-09T20:40:37.352Z,31.06
2022-08-09T20:43:24.613Z,30.98
2022-08-09T20:46:15.469Z,31.01
2022-08-09T20:49:16.748Z,30.99
2022-08-09T20:52:05.400Z,30.97
2022-08-09T20:54:52.519Z,30.97
2022-08-09T20:58:05.259Z,30.98
2022-08-09T21:01:14.042Z,31.01
2022-08-09T21:05:48.461Z,31.05
2022-08-09T21:07:12.429Z,30.95
2022-08-09T21:10:02.653Z,30.87
2022-08-09T21:15:39.691Z,30.89
2022-08-09T21:20:02.212Z,30.95
2022-08-09T21:21:53.072Z,30.88
2022-08-09T21:25:07.252Z,30.81
2022-08-09T21:27:52.609Z,30.89
2022-08-09T21:30:42.161Z,30.84
2022-08-09T21:33:24.540Z,30.81
2022-08-09T21:36:28.173Z,30.71
2022-08-09T21:39:22.052Z,30.78
2022-08-09T21:42:18.126Z,30.85
2022-08-09T21:45:17.456Z,30.88
2022-08-09T21:48:00.175Z,30.86
2022-08-09T21:50:51.528Z,30.83
2022-08-09T21:53:40.912Z,30.85
2022-08-09T21:56:33.848Z,30.83
2022-08-09T21:59:43.026Z,30.83
2022-08-09T22:02:40.237Z,30.80
2022-08-09T22:05:35.692Z,30.81
2022-08-09T22:08:24.849Z,30.86
2022-08-09T22:12:09.548Z,30.87
2022-08-09T22:14:15.647Z,30.89
2022-08-09T22:17:04.167Z,30.79
2022-08-09T22:19:59.103Z,30.70
2022-08-09T22:22:49.401Z,30.75
2022-08-09T22:26:07.871Z,30.73
2022-08-09T22:28:43.643Z,30.69
2022-08-09T22:31:50.235Z,30.65
2022-08-09T22:34:41.129Z,30.63
2022-08-09T22:37:40.001Z,30.73
2022-08-09T22:40:22.586Z,30.73
2022-08-09T22:43:16.131Z,30.68
2022-08-09T22:48:11.848Z,30.68
2022-08-09T22:49:17.142Z,30.60
2022-08-09T22:51:59.109Z,30.63
2022-08-09T22:54:49.487Z,30.59
2022-08-09T22:57:35.464Z,30.59
2022-08-09T23:00:25.120Z,30.59
2022-08-09T23:03:17.427Z,30.55
2022-08-09T23:06:32.504Z,30.58
2022-08-09T23:09:18.827Z,30.67
2022-08-09T23:12:07.381Z,30.58
2022-08-09T23:14:55.662Z,30.58
2022-08-09T23:17:38.372Z,30.52
2022-08-09T23:20:27.369Z,30.57
2022-08-09T23:23:09.318Z,30.48
2022-08-09T23:25:58.160Z,30.48
2022-08-09T23:28:48.131Z,30.55
2022-08-09T23:31:37.364Z,30.50
2022-08-09T23:34:19.695Z,30.51
2022-08-09T23:37:08.401Z,30.53
2022-08-09T23:39:50.427Z,30.58
2022-08-09T23:42:39.397Z,30.55
2022-08-09T23:45:37.792Z,30.51
2022-08-09T23:48:26.305Z,30.51
2022-08-09T23:51:08.116Z,30.54
2022-08-09T23:54:02.185Z,30.50
2022-08-09T23:56:54.886Z,30.51
